Time;durP1;ratioP1;P1;durP2;ratioP2;P2;SDS_P1;SDS_P2;PMS_P1;PMS_P2;Temp;Humidity;BMP_temperature;BMP_pressure;BME280_temperature;BME280_humidity;BME280_pressure;Samples;Min_cycle;Max_cycle;Signal;HPM_P1;HPM_P2
2022/01/12 00:01:09;;;;;;;13.35;2.58;;;;;;;10.87;93.08;100208.63;5010933;28;20120;-78
2022/01/12 00:03:37;;;;;;;5.85;1.92;;;;;;;10.86;93.18;100212.13;5014202;28;20073;-77
2022/01/12 00:06:05;;;;;;;9.95;2.28;;;;;;;10.91;93.27;100215.69;5010134;28;20052;-77
2022/01/12 00:08:33;;;;;;;11.93;2.05;;;;;;;10.96;93.39;100207.81;5017955;28;20050;-78
2022/01/12 00:11:02;;;;;;;15.70;3.15;;;;;;;10.99;93.50;100210.44;5017958;28;20494;-78
2022/01/12 00:13:32;;;;;;;9.90;2.40;;;;;;;11.02;93.45;100205.19;4992514;28;20046;-78
2022/01/12 00:16:01;;;;;;;12.07;2.42;;;;;;;11.03;93.64;100207.81;4991873;28;20054;-78
2022/01/12 00:18:29;;;;;;;6.43;1.67;;;;;;;11.05;93.69;100195.50;4992263;28;20054;-78
2022/01/12 00:20:57;;;;;;;7.28;1.65;;;;;;;11.06;93.67;100194.63;4991364;28;20055;-78
2022/01/12 00:23:24;;;;;;;13.80;2.65;;;;;;;11.06;93.79;100178.78;4990134;28;20038;-78
2022/01/12 00:26:02;;;;;;;15.20;2.30;;;;;;;11.09;93.81;100175.28;4991998;28;20065;-78
2022/01/12 00:34:06;;;;;;;15.98;3.67;;;;;;;11.14;94.00;100169.16;5006862;28;20556;-77
2022/01/12 00:36:34;;;;;;;19.08;3.80;;;;;;;11.13;93.81;100174.41;4994815;28;20526;-77
2022/01/12 00:39:04;;;;;;;11.80;2.80;;;;;;;11.13;93.96;100170.03;4989457;28;20517;-77
2022/01/12 00:41:31;;;;;;;12.75;3.08;;;;;;;11.14;94.17;100179.72;5020517;28;20382;-78
2022/01/12 00:44:02;;;;;;;12.25;2.40;;;;;;;11.18;94.06;100180.59;5013864;28;20107;-78
2022/01/12 00:46:32;;;;;;;8.45;2.17;;;;;;;11.22;94.16;100186.78;5030018;28;20069;-78
2022/01/12 00:49:01;;;;;;;13.60;2.75;;;;;;;11.24;94.22;100177.97;4994131;28;20074;-78
2022/01/12 00:51:31;;;;;;;12.10;2.33;;;;;;;11.29;94.22;100193.84;5009995;28;20042;-78
2022/01/12 00:54:00;;;;;;;10.35;2.10;;;;;;;11.31;94.36;100186.81;5011262;28;20100;-78
2022/01/12 00:56:28;;;;;;;11.35;3.08;;;;;;;11.34;94.46;100202.69;4993244;28;20584;-78
2022/01/12 00:58:55;;;;;;;10.55;2.20;;;;;;;11.37;94.42;100205.31;5010050;28;20046;-78
2022/01/12 01:01:25;;;;;;;9.23;2.67;;;;;;;11.39;94.55;100208.84;5011121;28;20038;-78
2022/01/12 01:03:53;;;;;;;8.32;2.17;;;;;;;11.40;94.47;100197.41;5008903;28;20534;-78
2022/01/12 01:06:23;;;;;;;10.25;1.80;;;;;;;11.41;94.65;100204.47;5009415;28;20053;-78
2022/01/12 01:08:52;;;;;;;7.97;2.03;;;;;;;11.38;94.68;100202.69;5009424;28;20042;-78
2022/01/12 01:11:23;;;;;;;8.23;1.90;;;;;;;11.38;94.68;100196.50;4993354;28;20045;-78
2022/01/12 01:13:59;;;;;;;10.73;1.75;;;;;;;11.38;94.74;100184.19;5009623;28;20064;-77
2022/01/12 01:16:46;;;;;;;7.53;1.42;;;;;;;11.40;94.74;100182.44;5008799;28;20410;-77
2022/01/12 01:27:46;;;;;;;16.70;1.98;;;;;;;11.40;94.66;100169.22;4948064;28;20043;-77
2022/01/12 01:30:15;;;;;;;8.00;1.90;;;;;;;11.41;94.57;100171.00;4972721;28;20576;-78
2022/01/12 01:32:46;;;;;;;10.68;1.55;;;;;;;11.43;94.55;100174.50;4989034;28;20038;-77
2022/01/12 01:35:13;;;;;;;8.68;1.88;;;;;;;11.44;94.51;100167.47;4999335;28;20117;-77
2022/01/12 01:37:41;;;;;;;8.02;1.50;;;;;;;11.43;94.53;100153.34;5026267;28;20033;-77
2022/01/12 01:40:11;;;;;;;8.10;2.70;;;;;;;11.44;94.52;100155.13;5008613;28;20037;-77
2022/01/12 01:43:06;;;;;;;15.27;6.65;;;;;;;11.46;94.57;100157.78;5008002;28;20054;-77
2022/01/12 01:53:56;;;;;;;17.10;2.45;;;;;;;11.38;94.29;100155.13;4991537;28;20042;-77
2022/01/12 01:56:26;;;;;;;10.82;2.80;;;;;;;11.44;94.39;100141.03;5006301;28;20108;-77
2022/01/12 01:58:54;;;;;;;8.55;2.20;;;;;;;11.47;94.36;100133.13;4992163;28;20038;-77
2022/01/12 02:01:24;;;;;;;13.50;3.00;;;;;;;11.51;94.04;100125.19;4992310;28;20038;-76
2022/01/12 02:04:02;;;;;;;13.07;2.97;;;;;;;11.52;94.37;100121.66;5008196;28;20049;-77
2022/01/12 02:06:31;;;;;;;9.63;2.58;;;;;;;11.51;94.46;100116.38;5008331;28;20042;-77
2022/01/12 02:09:00;;;;;;;10.63;1.45;;;;;;;11.51;94.30;100108.44;5008426;28;20038;-77
2022/01/12 02:11:38;;;;;;;11.52;1.38;;;;;;;11.48;94.37;100112.00;5008067;28;20117;-76
2022/01/12 02:14:15;;;;;;;10.98;3.40;;;;;;;11.53;94.29;100112.88;5008433;28;20520;-78
2022/01/12 02:16:53;;;;;;;42.38;29.95;;;;;;;11.58;94.25;100113.75;5007936;28;20068;-77
2022/01/12 02:19:46;;;;;;;49.55;38.10;;;;;;;11.59;94.26;100126.09;5007761;28;20045;-78
2022/01/12 02:36:23;;;;;;;18.70;7.97;;;;;;;11.74;94.32;100105.88;4982427;28;20039;-77
2022/01/12 02:41:39;;;;;;;11.57;1.20;;;;;;;11.79;94.29;100119.97;5007940;28;20443;-78
2022/01/12 02:55:06;;;;;;;2.88;0.88;;;;;;;11.52;94.33;100124.31;4945163;28;20411;-75
2022/01/12 02:57:34;;;;;;;6.00;0.50;;;;;;;11.39;94.29;100116.38;4993295;28;20406;-75
2022/01/12 03:00:08;;;;;;;3.13;0.70;;;;;;;11.32;94.31;100123.41;4987920;28;20042;-76
2022/01/12 03:02:39;;;;;;;4.88;0.77;;;;;;;11.30;94.45;100129.53;5004411;28;20637;-75
2022/01/12 03:07:50;;;;;;;7.43;0.65;;;;;;;11.23;94.47;100141.84;5024875;28;20041;-76
2022/01/12 03:10:19;;;;;;;4.85;0.80;;;;;;;11.23;94.55;100126.00;4991331;28;20042;-76
2022/01/12 03:12:47;;;;;;;4.72;1.10;;;;;;;11.22;94.52;100128.66;5004621;28;20797;-76
2022/01/12 03:15:17;;;;;;;8.40;1.10;;;;;;;11.19;94.47;100130.41;5010948;28;20034;-76
2022/01/12 03:17:45;;;;;;;4.18;0.90;;;;;;;11.18;94.39;100136.56;5027029;28;20092;-76
2022/01/12 03:20:14;;;;;;;1.80;0.65;;;;;;;11.17;94.40;100134.81;5011192;28;20458;-76
2022/01/12 03:22:42;;;;;;;4.80;0.70;;;;;;;11.14;94.29;100121.59;5011913;28;20042;-76
2022/01/12 03:25:10;;;;;;;8.38;1.40;;;;;;;11.13;94.22;100111.03;5010706;28;20526;-75
2022/01/12 03:27:39;;;;;;;8.52;0.90;;;;;;;11.15;94.26;100120.72;5010952;28;20045;-75
2022/01/12 03:30:08;;;;;;;8.38;1.00;;;;;;;11.14;94.24;100115.44;4994883;28;20683;-75
2022/01/12 03:32:41;;;;;;;13.65;1.17;;;;;;;11.19;94.29;100130.41;4994704;28;20070;-75
2022/01/12 03:35:22;;;;;;;8.35;1.10;;;;;;;11.25;94.47;100134.81;5004654;28;20076;-76
2022/01/12 03:38:19;;;;;;;10.68;1.10;;;;;;;11.33;94.57;100143.66;5006880;28;20046;-76
2022/01/12 03:40:42;;;;;;;12.02;1.92;;;;;;;11.42;94.76;100132.25;4990313;28;20399;-76
2022/01/12 03:43:11;;;;;;;10.40;1.63;;;;;;;11.46;94.76;100120.78;4990971;28;20410;-76
2022/01/12 03:45:40;;;;;;;5.75;1.33;;;;;;;11.43;94.89;100133.97;4992071;28;21926;-76
2022/01/12 03:48:08;;;;;;;8.23;1.25;;;;;;;11.40;94.98;100132.22;5007371;28;20560;-75
2022/01/12 03:50:36;;;;;;;8.10;1.23;;;;;;;11.39;95.03;100141.03;5007679;28;20506;-76
2022/01/12 03:53:04;;;;;;;8.00;1.40;;;;;;;11.40;95.19;100141.91;5010954;28;20042;-77
2022/01/12 03:55:32;;;;;;;13.25;1.80;;;;;;;11.43;95.17;100134.84;5009556;28;20050;-76
2022/01/12 03:58:00;;;;;;;13.57;1.38;;;;;;;11.47;95.25;100151.63;5010148;28;20057;-76
2022/01/12 04:00:29;;;;;;;6.80;1.10;;;;;;;11.51;95.22;100151.63;5010320;28;20121;-75
2022/01/12 04:02:57;;;;;;;4.38;0.90;;;;;;;11.53;95.35;100146.34;5010232;28;20050;-76
2022/01/12 04:08:18;;;;;;;8.25;0.88;;;;;;;11.53;95.41;100151.63;5009734;28;20486;-75
2022/01/12 04:08:23;;;;;;;6.18;0.70;;;;;;;11.54;95.53;100154.28;4991748;28;20594;-75
2022/01/12 04:10:55;;;;;;;6.65;0.80;;;;;;;11.54;95.53;100154.28;4995132;28;20054;-76
2022/01/12 04:13:24;;;;;;;5.47;0.88;;;;;;;11.53;95.55;100152.50;4991497;28;20121;-76
2022/01/12 04:15:56;;;;;;;5.07;0.60;;;;;;;11.54;95.55;100151.63;4988888;28;20113;-76
2022/01/12 04:18:24;;;;;;;7.95;1.00;;;;;;;11.52;95.59;100140.19;4990290;28;20093;-76
2022/01/12 04:20:52;;;;;;;10.95;1.63;;;;;;;11.51;95.60;100142.81;4988627;28;20046;-76
2022/01/12 04:23:21;;;;;;;11.20;1.38;;;;;;;11.50;95.48;100136.63;5009145;28;20061;-76
2022/01/12 04:25:51;;;;;;;5.10;0.70;;;;;;;11.48;95.38;100134.88;5009507;28;20498;-77
2022/01/12 04:28:20;;;;;;;13.25;3.28;;;;;;;11.47;95.23;100136.66;5009792;28;20045;-77
2022/01/12 04:30:49;;;;;;;10.00;1.70;;;;;;;11.46;95.13;100134.00;4993761;28;20030;-77
2022/01/12 04:33:18;;;;;;;27.90;9.50;;;;;;;11.45;95.00;100135.75;5009574;28;20125;-77
2022/01/12 04:35:49;;;;;;;32.05;11.45;;;;;;;11.43;94.82;100128.69;5009237;28;20556;-77
2022/01/12 04:38:19;;;;;;;17.77;5.18;;;;;;;11.42;94.84;100126.97;5010202;28;20038;-76
2022/01/12 04:40:48;;;;;;;16.60;4.28;;;;;;;11.41;94.79;100120.78;4995692;28;20041;-76
2022/01/12 04:43:17;;;;;;;13.45;3.60;;;;;;;11.43;94.46;100118.13;4990037;28;20174;-77
2022/01/12 04:46:08;;;;;;;7.93;1.52;;;;;;;11.41;94.51;100123.44;4989602;28;20097;-77
2022/01/12 04:48:51;;;;;;;9.80;1.17;;;;;;;11.41;94.48;100130.47;4981192;28;20054;-77
2022/01/12 04:51:19;;;;;;;9.80;1.50;;;;;;;11.43;94.49;100129.56;5010340;28;20502;-76
2022/01/12 04:53:47;;;;;;;21.70;6.38;;;;;;;11.41;94.58;100128.72;5009239;28;20045;-77
2022/01/12 04:56:15;;;;;;;30.25;13.77;;;;;;;11.43;94.75;100133.97;4997268;28;20089;-77
2022/01/12 04:58:42;;;;;;;39.33;15.32;;;;;;;11.53;94.76;100134.00;4989655;28;20038;-77
2022/01/12 05:01:11;;;;;;;37.80;15.73;;;;;;;11.50;94.75;100136.63;5003510;28;20517;-77
2022/01/12 05:06:55;;;;;;;17.23;4.75;;;;;;;11.53;94.82;100151.63;4989773;28;22340;-77
2022/01/12 05:09:50;;;;;;;8.77;2.92;;;;;;;11.53;94.75;100149.88;4998216;28;20059;-75
2022/01/12 05:15:09;;;;;;;21.70;8.93;;;;;;;11.53;94.69;100162.19;5010455;28;19921;-78
2022/01/12 05:17:37;;;;;;;18.30;5.50;;;;;;;11.47;94.76;100168.38;5005238;28;20038;-77
2022/01/12 05:20:08;;;;;;;24.05;9.30;;;;;;;11.55;94.89;100179.81;5009003;28;20567;-77
2022/01/12 05:22:35;;;;;;;24.92;10.10;;;;;;;11.56;94.94;100176.28;4996211;28;20095;-78
2022/01/12 05:25:03;;;;;;;35.17;14.05;;;;;;;11.62;94.95;100186.00;5001184;28;20046;-78
2022/01/12 05:27:32;;;;;;;25.90;10.60;;;;;;;11.64;94.98;100192.16;4989101;28;20148;-77
2022/01/12 05:29:59;;;;;;;25.67;10.27;;;;;;;11.65;94.90;100199.22;4988126;28;20494;-78
2022/01/12 05:32:28;;;;;;;28.45;11.25;;;;;;;11.66;95.05;100190.44;4994301;28;20077;-78
2022/01/12 05:35:02;;;;;;;32.03;12.90;;;;;;;11.68;94.92;100203.66;4976429;28;20057;-78
2022/01/12 05:37:32;;;;;;;35.58;15.15;;;;;;;11.70;95.05;100197.47;4987444;28;20054;-77
2022/01/12 05:40:01;;;;;;;22.50;9.82;;;;;;;11.71;95.00;100199.25;5000499;28;20487;-79
2022/01/12 05:42:55;;;;;;;11.85;3.72;;;;;;;11.70;95.08;100200.13;4985907;28;20043;-78
2022/01/12 05:45:23;;;;;;;14.13;3.50;;;;;;;11.71;95.11;100208.94;4989541;28;20042;-78
2022/01/12 05:50:39;;;;;;;43.78;19.75;;;;;;;11.67;95.09;100202.78;4983438;28;20505;-76
2022/01/12 05:53:15;;;;;;;61.45;36.38;;;;;;;11.66;95.11;100203.63;4987575;28;20582;-79
2022/01/12 05:55:45;;;;;;;65.78;36.78;;;;;;;11.64;95.05;100202.75;4979449;28;20049;-78
2022/01/12 05:58:13;;;;;;;57.65;32.33;;;;;;;11.63;95.06;100200.09;5009336;28;20405;-78
2022/01/12 06:00:42;;;;;;;52.67;29.92;;;;;;;11.63;95.06;100187.75;5008780;28;20042;-78
2022/01/12 06:03:10;;;;;;;52.30;27.98;;;;;;;11.66;94.93;100201.00;5025129;28;20053;-77
2022/01/12 06:05:39;;;;;;;48.40;22.67;;;;;;;11.69;95.07;100214.22;4996620;28;20042;-77
2022/01/12 06:08:07;;;;;;;83.65;42.97;;;;;;;11.73;95.14;100223.94;5004883;28;20053;-78
2022/01/12 06:10:37;;;;;;;108.53;59.70;;;;;;;11.83;95.23;100227.50;4987981;28;20491;-78
2022/01/12 06:13:04;;;;;;;54.47;32.63;;;;;;;11.94;95.39;100231.94;4986798;28;20046;-78
2022/01/12 06:15:32;;;;;;;46.83;30.77;;;;;;;12.08;95.47;100228.44;4989284;28;20047;-79
2022/01/12 06:18:00;;;;;;;41.67;23.15;;;;;;;12.20;95.58;100231.09;5011764;28;20043;-78
2022/01/12 06:20:27;;;;;;;29.63;16.77;;;;;;;12.27;95.60;100232.84;4969590;28;20459;-79
2022/01/12 06:23:18;;;;;;;99.38;70.47;;;;;;;12.31;95.81;100230.19;4980283;28;20047;-79
2022/01/12 06:25:55;;;;;;;153.55;114.25;;;;;;;12.37;95.84;100239.88;4999900;28;20046;-79
2022/01/12 06:28:37;;;;;;;171.98;114.40;;;;;;;12.35;95.88;100249.59;4988957;28;20517;-79
2022/01/12 06:31:13;;;;;;;159.90;105.90;;;;;;;12.35;96.05;100249.59;5009044;28;20041;-79
2022/01/12 06:33:44;;;;;;;117.57;77.88;;;;;;;12.34;96.06;100255.75;4984588;28;20073;-79
2022/01/12 06:36:13;;;;;;;103.82;66.75;;;;;;;12.34;96.14;100251.34;4989559;28;20050;-79
2022/01/12 06:38:43;;;;;;;72.78;44.30;;;;;;;12.36;96.16;100256.66;4991312;28;20438;-79
2022/01/12 06:41:14;;;;;;;35.78;18.95;;;;;;;12.37;96.31;100263.72;4992310;28;20467;-79
2022/01/12 06:43:42;;;;;;;21.70;11.90;;;;;;;12.38;96.33;100260.19;4993050;28;20042;-79
2022/01/12 06:46:11;;;;;;;14.48;5.63;;;;;;;12.42;96.41;100266.34;4974040;28;20049;-79
2022/01/12 06:48:39;;;;;;;12.38;3.78;;;;;;;12.44;96.48;100259.28;4990945;28;20654;-79
2022/01/12 06:51:07;;;;;;;9.65;2.78;;;;;;;12.51;96.49;100263.72;4992538;28;20045;-79
2022/01/12 06:53:35;;;;;;;7.80;1.50;;;;;;;12.54;96.49;100259.28;4994612;28;20042;-79
2022/01/12 06:56:04;;;;;;;4.78;1.23;;;;;;;12.76;96.45;100258.38;4987429;28;20046;-80
2022/01/12 06:58:37;;;;;;;5.60;0.98;;;;;;;13.13;96.17;100258.31;5000791;28;20104;-80
2022/01/12 07:01:05;;;;;;;5.40;1.95;;;;;;;13.40;95.76;100247.63;5004273;28;20069;-80
2022/01/12 07:03:36;;;;;;;6.30;3.13;;;;;;;13.31;95.45;100241.50;5003284;28;20042;-80
2022/01/12 07:06:04;;;;;;;6.95;1.15;;;;;;;13.03;95.59;100248.63;4982666;28;20075;-79
2022/01/12 07:08:34;;;;;;;4.57;1.02;;;;;;;12.93;95.64;100253.03;4997363;28;20045;-79
2022/01/12 07:11:03;;;;;;;8.68;1.63;;;;;;;13.18;95.52;100259.22;4995145;28;20071;-80
2022/01/12 07:13:30;;;;;;;4.03;0.55;;;;;;;13.10;95.48;100274.22;4985376;28;20038;-79
2022/01/12 07:16:01;;;;;;;3.75;0.77;;;;;;;12.98;95.55;100277.78;4977711;28;20495;-80
2022/01/12 07:18:29;;;;;;;12.40;2.28;;;;;;;12.86;95.69;100277.81;5022581;28;20125;-79
2022/01/12 07:20:57;;;;;;;28.27;18.75;;;;;;;12.81;95.61;100286.63;4992321;28;20411;-79
2022/01/12 07:23:25;;;;;;;28.52;17.88;;;;;;;12.76;95.78;100306.06;4980047;28;20506;-79
2022/01/12 07:25:53;;;;;;;44.17;29.00;;;;;;;12.69;95.81;100304.28;5007315;28;20095;-79
2022/01/12 07:28:21;;;;;;;34.42;23.73;;;;;;;12.69;95.95;100301.66;5033280;28;20069;-76
2022/01/12 07:30:50;;;;;;;37.78;25.10;;;;;;;12.75;96.16;100314.88;5011860;28;20054;-77
2022/01/12 07:33:20;;;;;;;27.10;18.35;;;;;;;12.89;96.01;100314.00;5008037;28;20490;-77
2022/01/12 07:35:48;;;;;;;93.75;68.97;;;;;;;12.93;96.15;100306.03;5011882;28;20045;-76
2022/01/12 07:38:15;;;;;;;43.42;26.38;;;;;;;12.92;95.88;100309.59;5009423;28;20041;-77
2022/01/12 07:40:44;;;;;;;35.33;21.90;;;;;;;13.28;95.98;100308.66;5011297;28;20045;-78
2022/01/12 07:43:13;;;;;;;26.17;15.45;;;;;;;13.91;95.58;100309.28;5011148;28;20089;-77
2022/01/12 07:45:41;;;;;;;12.07;5.07;;;;;;;14.42;94.62;100305.44;5009915;28;20038;-78
2022/01/12 07:48:08;;;;;;;6.25;2.80;;;;;;;14.85;93.65;100319.25;5009997;28;20450;-77
2022/01/12 07:50:37;;;;;;;8.68;2.13;;;;;;;15.20;92.65;100318.91;5004545;28;20042;-78
2022/01/12 07:53:05;;;;;;;2.05;0.98;;;;;;;15.43;91.92;100311.56;4996248;28;20485;-78
2022/01/12 07:55:32;;;;;;;3.80;0.65;;;;;;;15.56;91.40;100317.63;5010701;28;20563;-78
2022/01/12 07:58:00;;;;;;;4.65;0.82;;;;;;;15.73;90.91;100315.69;5007843;28;20070;-79
2022/01/12 08:00:28;;;;;;;3.90;0.63;;;;;;;15.82;90.60;100310.22;4991805;28;20053;-78
2022/01/12 08:02:56;;;;;;;1.23;0.25;;;;;;;15.91;90.24;100314.53;4996694;28;20038;-79
2022/01/12 08:05:24;;;;;;;5.50;0.85;;;;;;;16.03;89.95;100321.47;4995763;28;20047;-75
2022/01/12 08:07:55;;;;;;;1.45;0.50;;;;;;;16.14;89.72;100333.78;4996826;28;20125;-76
2022/01/12 08:10:23;;;;;;;2.03;0.43;;;;;;;15.99;89.41;100320.66;5006114;28;20074;-77
2022/01/12 08:12:50;;;;;;;3.65;1.10;;;;;;;16.22;89.59;100320.31;5012070;28;20096;-79
2022/01/12 08:15:18;;;;;;;1.95;0.45;;;;;;;16.34;89.30;100318.34;5011163;28;20513;-78
2022/01/12 08:17:46;;;;;;;4.30;0.40;;;;;;;16.16;89.27;100310.63;5012077;28;20513;-78
2022/01/12 08:20:17;;;;;;;1.08;0.22;;;;;;;15.94;89.78;100312.75;5010178;28;20137;-79
2022/01/12 08:22:45;;;;;;;2.75;0.40;;;;;;;16.13;89.70;100305.38;5011279;28;20042;-79
2022/01/12 08:25:14;;;;;;;2.17;0.57;;;;;;;16.40;89.01;100314.75;5011683;28;20121;-80
2022/01/12 08:27:42;;;;;;;2.45;1.08;;;;;;;16.54;88.61;100320.69;5013173;28;20038;-80
2022/01/12 08:30:16;;;;;;;3.38;1.10;;;;;;;16.62;88.23;100316.16;5012375;28;20560;-80
2022/01/12 08:32:45;;;;;;;3.05;0.50;;;;;;;16.66;87.83;100320.56;5012576;28;20111;-81
2022/01/12 08:35:13;;;;;;;2.50;0.52;;;;;;;16.83;87.83;100312.28;5012554;28;20069;-82
2022/01/12 08:37:41;;;;;;;3.33;0.70;;;;;;;16.93;87.42;100310.34;5013626;28;20041;-82
2022/01/12 08:40:10;;;;;;;1.52;0.50;;;;;;;16.96;86.96;100310.28;4996034;28;20494;-81
2022/01/12 08:42:39;;;;;;;2.20;0.47;;;;;;;17.08;86.65;100312.72;5013041;28;20041;-82
2022/01/12 08:45:08;;;;;;;2.53;0.30;;;;;;;17.17;86.17;100315.22;4996697;28;20498;-83
2022/01/12 08:47:35;;;;;;;1.77;0.50;;;;;;;17.39;85.98;100319.22;5012551;28;20064;-82
2022/01/12 08:50:04;;;;;;;4.10;0.45;;;;;;;17.61;85.62;100310.84;5012476;28;20073;-84
2022/01/12 08:52:32;;;;;;;1.73;0.30;;;;;;;17.64;84.21;100308.13;5013414;28;20046;-81
2022/01/12 08:55:00;;;;;;;4.10;0.80;;;;;;;17.77;83.39;100310.50;5011837;28;20096;-81
2022/01/12 08:57:29;;;;;;;4.82;0.90;;;;;;;17.93;83.21;100308.34;5012484;28;20046;-82
2022/01/12 09:00:00;;;;;;;0.90;0.13;;;;;;;17.95;82.74;100327.03;5012393;28;20046;-82
2022/01/12 09:02:28;;;;;;;5.30;2.67;;;;;;;17.81;81.24;100328.19;5011796;28;21128;-83
2022/01/12 09:04:55;;;;;;;4.90;3.08;;;;;;;17.81;83.05;100341.56;5012473;28;20042;-83
2022/01/12 09:07:23;;;;;;;4.22;1.70;;;;;;;17.67;84.07;100332.06;5013204;28;20046;-81
2022/01/12 09:09:52;;;;;;;2.50;1.10;;;;;;;17.78;84.68;100336.28;5011827;28;20129;-82
2022/01/12 09:12:20;;;;;;;3.33;1.58;;;;;;;17.68;84.43;100336.50;5012865;28;20402;-81
2022/01/12 09:14:48;;;;;;;4.63;1.65;;;;;;;17.49;85.27;100338.63;5013041;28;20111;-82
2022/01/12 09:17:20;;;;;;;2.35;0.60;;;;;;;17.53;85.52;100348.31;5011618;28;20436;-82
2022/01/12 09:19:48;;;;;;;6.63;2.40;;;;;;;17.57;85.44;100355.38;5013025;28;20060;-82
2022/01/12 09:22:16;;;;;;;6.82;1.73;;;;;;;17.44;85.91;100351.19;5013091;28;20065;-82
2022/01/12 09:24:44;;;;;;;6.28;1.90;;;;;;;17.39;86.47;100347.72;5023178;28;20046;-82
2022/01/12 09:27:13;;;;;;;11.73;4.50;;;;;;;17.35;86.70;100349.56;5022552;28;20042;-82
2022/01/12 09:29:41;;;;;;;7.07;2.58;;;;;;;17.62;86.50;100349.97;5010472;28;20038;-82
2022/01/12 09:32:09;;;;;;;10.27;2.90;;;;;;;17.84;86.63;100346.84;5010603;28;20146;-83
2022/01/12 09:34:38;;;;;;;7.55;2.38;;;;;;;18.15;86.82;100351.53;5010928;28;20061;-86
2022/01/12 09:37:06;;;;;;;2.75;0.70;;;;;;;18.07;87.34;100348.13;5012151;28;20056;-85
2022/01/12 09:39:34;;;;;;;7.78;2.92;;;;;;;17.89;87.61;100350.28;4994525;28;20042;-82
2022/01/12 09:42:02;;;;;;;14.73;4.55;;;;;;;17.73;87.60;100348.84;4976298;28;20093;-82
2022/01/12 09:44:31;;;;;;;15.52;5.43;;;;;;;17.47;87.49;100346.66;4982077;28;20043;-80
2022/01/12 09:47:00;;;;;;;8.77;2.42;;;;;;;17.27;87.08;100340.81;4989563;28;20054;-79
2022/01/12 09:49:28;;;;;;;11.10;3.63;;;;;;;17.04;86.85;100343.91;4989980;28;20100;-81
2022/01/12 09:51:59;;;;;;;13.65;4.47;;;;;;;16.93;86.63;100343.22;4992377;28;20038;-83
2022/01/12 09:54:28;;;;;;;10.23;3.05;;;;;;;16.70;85.86;100338.25;5026788;28;20125;-80
2022/01/12 09:56:57;;;;;;;7.22;2.17;;;;;;;16.47;85.86;100336.84;4998823;28;20038;-80
2022/01/12 09:59:25;;;;;;;5.82;1.75;;;;;;;16.29;86.09;100335.31;4992019;28;20491;-80
2022/01/12 10:01:54;;;;;;;10.95;2.65;;;;;;;16.10;86.24;100326.69;4988667;28;20054;-80
2022/01/12 10:04:23;;;;;;;7.55;2.65;;;;;;;15.92;86.46;100338.50;4988519;28;20041;-77
2022/01/12 10:06:54;;;;;;;16.50;4.43;;;;;;;15.83;86.84;100333.28;4981161;28;20042;-80
2022/01/12 10:09:26;;;;;;;12.00;3.80;;;;;;;15.73;86.84;100342.28;4981157;28;20509;-81
2022/01/12 10:11:56;;;;;;;8.65;3.00;;;;;;;15.64;87.00;100346.81;4994760;28;20141;-81
2022/01/12 10:14:26;;;;;;;8.65;2.42;;;;;;;15.59;87.15;100348.66;5013542;28;20058;-81
2022/01/12 10:16:56;;;;;;;8.30;3.10;;;;;;;15.52;86.91;100340.75;5010498;28;20050;-84
2022/01/12 10:19:28;;;;;;;6.75;4.03;;;;;;;15.49;87.09;100342.56;4979187;28;20077;-84
2022/01/12 10:21:57;;;;;;;9.60;4.13;;;;;;;15.48;87.07;100344.31;4991018;28;20533;-83
2022/01/12 10:24:28;;;;;;;6.05;2.10;;;;;;;15.67;87.47;100326.41;5009934;28;20037;-83
2022/01/12 10:26:56;;;;;;;4.25;1.30;;;;;;;15.83;87.55;100333.28;5011437;28;20038;-83
2022/01/12 10:29:26;;;;;;;5.32;2.03;;;;;;;15.87;87.31;100324.38;5010475;28;20038;-82
2022/01/12 10:31:56;;;;;;;2.33;1.50;;;;;;;15.85;86.39;100331.47;4993688;28;20057;-82
2022/01/12 10:34:26;;;;;;;3.33;0.77;;;;;;;15.78;85.18;100329.78;5011428;28;20060;-82
2022/01/12 10:36:54;;;;;;;4.53;1.00;;;;;;;15.88;84.75;100331.44;5011452;28;20409;-81
2022/01/12 10:39:27;;;;;;;4.13;1.15;;;;;;;16.01;84.19;100329.50;5009961;28;20049;-80
2022/01/12 10:41:57;;;;;;;3.87;1.17;;;;;;;16.00;84.00;100333.06;5009667;28;20552;-78
2022/01/12 10:44:28;;;;;;;6.15;1.70;;;;;;;16.04;83.85;100341.88;5010654;28;20133;-79
2022/01/12 10:47:08;;;;;;;2.47;0.90;;;;;;;16.13;83.88;100341.78;5008617;28;20164;-78
2022/01/12 10:49:37;;;;;;;4.85;1.23;;;;;;;16.16;84.18;100339.03;5009818;28;20446;-77
2022/01/12 10:52:09;;;;;;;6.88;1.27;;;;;;;16.31;84.41;100350.38;5008467;28;20038;-77
2022/01/12 10:54:49;;;;;;;5.50;0.90;;;;;;;16.51;84.36;100349.19;4994226;28;20050;-75
2022/01/12 10:57:19;;;;;;;6.85;1.80;;;;;;;16.58;83.65;100346.41;4975951;28;20109;-75
2022/01/12 11:00:06;;;;;;;4.35;1.15;;;;;;;16.55;83.21;100349.13;4987517;28;20121;-74
2022/01/12 11:02:36;;;;;;;5.05;1.35;;;;;;;16.49;83.24;100341.22;4997676;28;20576;-74
2022/01/12 11:05:06;;;;;;;5.28;1.70;;;;;;;16.33;83.19;100343.25;4996342;28;20201;-75
2022/01/12 11:07:34;;;;;;;6.95;3.20;;;;;;;16.20;83.00;100343.44;4982046;28;20096;-75
2022/01/12 11:10:06;;;;;;;2.00;0.88;;;;;;;16.15;83.17;100350.59;4996758;28;20413;-74
2022/01/12 11:12:35;;;;;;;4.55;0.75;;;;;;;16.09;82.99;100356.00;4993314;28;20054;-79
2022/01/12 11:15:05;;;;;;;3.95;1.42;;;;;;;16.05;82.81;100348.97;4998833;28;20387;-78
2022/01/12 11:17:33;;;;;;;7.72;1.60;;;;;;;15.98;81.91;100355.28;5001913;28;20045;-79
2022/01/12 11:20:12;;;;;;;3.92;1.20;;;;;;;15.97;82.02;100357.06;5001966;28;20065;-84
2022/01/12 11:22:58;;;;;;;4.55;1.15;;;;;;;15.93;82.16;100358.91;5009902;28;20457;-76
2022/01/12 11:25:31;;;;;;;4.13;1.38;;;;;;;15.91;82.11;100366.00;5006797;28;20405;-79
2022/01/12 11:28:10;;;;;;;7.55;3.05;;;;;;;15.93;82.31;100366.00;4991737;28;20511;-77
2022/01/12 11:30:39;;;;;;;5.70;2.17;;;;;;;16.00;82.83;100372.13;4976255;28;20042;-77
2022/01/12 11:33:08;;;;;;;3.30;1.60;;;;;;;16.15;83.26;100366.56;5003755;28;20499;-77
2022/01/12 11:35:39;;;;;;;2.05;1.00;;;;;;;16.31;83.70;100370.81;4988598;28;20074;-79
2022/01/12 11:38:08;;;;;;;2.80;1.10;;;;;;;16.52;84.33;100362.50;4992799;28;20042;-78
2022/01/12 11:40:42;;;;;;;2.35;0.90;;;;;;;16.49;82.95;100351.88;4993920;28;20073;-79
2022/01/12 11:43:21;;;;;;;2.85;1.30;;;;;;;16.48;81.43;100363.44;4997523;28;20534;-78
2022/01/12 11:46:02;;;;;;;5.40;2.08;;;;;;;16.47;80.86;100369.69;4986969;28;20130;-79
2022/01/12 11:48:31;;;;;;;6.63;2.35;;;;;;;16.47;80.86;100375.03;5010726;28;20387;-78
2022/01/12 11:50:59;;;;;;;5.82;2.22;;;;;;;16.51;80.68;100375.84;5012115;28;20402;-77
2022/01/12 11:53:27;;;;;;;2.45;1.15;;;;;;;16.61;80.16;100381.03;4991051;28;20042;-78
2022/01/12 11:55:56;;;;;;;2.75;1.30;;;;;;;16.76;80.05;100371.03;4985925;28;20050;-79
2022/01/12 11:58:24;;;;;;;7.45;2.65;;;;;;;16.81;79.23;100379.84;4992762;28;20414;-77
2022/01/12 12:00:52;;;;;;;7.30;2.78;;;;;;;16.79;79.39;100381.66;4979376;28;20034;-80
2022/01/12 12:03:20;;;;;;;6.22;2.13;;;;;;;16.76;78.30;100379.03;5010343;28;20546;-80
2022/01/12 12:05:48;;;;;;;4.50;1.30;;;;;;;16.74;78.11;100374.59;4993024;28;20061;-80
2022/01/12 12:08:25;;;;;;;3.28;1.10;;;;;;;16.71;76.75;100380.00;4970259;28;20133;-80
2022/01/12 12:10:54;;;;;;;6.15;2.78;;;;;;;16.64;76.97;100388.13;5005778;28;20117;-79
2022/01/12 12:13:23;;;;;;;9.98;2.88;;;;;;;16.58;76.19;100381.06;4995841;28;20047;-78
2022/01/12 12:15:52;;;;;;;3.85;1.17;;;;;;;16.53;75.99;100390.03;4980253;28;20038;-78
2022/01/12 12:18:22;;;;;;;10.32;3.90;;;;;;;16.45;75.25;100397.25;4992893;28;20049;-78
2022/01/12 12:20:50;;;;;;;2.42;1.00;;;;;;;16.46;75.31;100402.56;4991607;28;20042;-77
2022/01/12 12:23:22;;;;;;;4.35;1.17;;;;;;;16.50;74.91;100411.38;4971911;28;20039;-78
2022/01/12 12:25:50;;;;;;;2.60;1.00;;;;;;;16.58;75.13;100406.84;4974971;28;20047;-80
2022/01/12 12:28:17;;;;;;;5.63;2.20;;;;;;;16.63;74.88;100416.53;5001008;28;20526;-79
2022/01/12 12:30:47;;;;;;;2.78;0.88;;;;;;;16.66;74.28;100419.19;4979005;28;20062;-77
2022/01/12 12:33:16;;;;;;;3.90;0.88;;;;;;;16.70;73.77;100420.88;4987391;28;20050;-79
2022/01/12 12:35:45;;;;;;;4.05;1.52;;;;;;;16.64;73.76;100430.75;4991359;28;20045;-77